Arcola, Georgia
Current Conditions -  °F | °C
As of 3:35 AM on Saturday 01 Nov 2014 (Local Time) from KCWV Reporting Station
Overcast Overcast  
Wind Chill: 54°   Ceiling: 2800
Heat Index: 54°   Visibility: 10mi
Dew Point: 41°   Wind: 20mph
Humidity: 62%   Direction: 290°WNW
Pressure: 29.83"   Gusts: 31mph
Location:  32.2794°N, 81.623°W
Report Text: KCWV 010735Z AUTO 29017G27KT 10SM BKN028 OVC036 12/05 A2983 RMK AO2
Loading
Personal Weather Stations






























Interactive Weather Map
Tropical Storm Tracking
New forecast layout! Learn more

10-Day Weather Forecast

Advertisements
Track Severe Weather on mobile